sensor_id;sensor_type;location;lat;lon;timestamp;P1;durP1;ratioP1;P2;durP2;ratioP2
63902;SDS011;50072;50.678;13.938;2023-11-19T00:02:03;33.97;;;15.35;;
63902;SDS011;50072;50.678;13.938;2023-11-19T00:04:32;32.25;;;14.27;;
63902;SDS011;50072;50.678;13.938;2023-11-19T00:07:02;27.77;;;13.98;;
63902;SDS011;50072;50.678;13.938;2023-11-19T00:09:32;33.78;;;15.10;;
63902;SDS011;50072;50.678;13.938;2023-11-19T00:12:00;30.55;;;14.07;;
63902;SDS011;50072;50.678;13.938;2023-11-19T00:14:32;36.30;;;16.02;;
63902;SDS011;50072;50.678;13.938;2023-11-19T00:17:04;30.88;;;15.18;;
63902;SDS011;50072;50.678;13.938;2023-11-19T00:19:32;29.17;;;14.55;;
63902;SDS011;50072;50.678;13.938;2023-11-19T00:21:58;32.20;;;14.95;;
63902;SDS011;50072;50.678;13.938;2023-11-19T00:24:28;31.95;;;14.27;;
63902;SDS011;50072;50.678;13.938;2023-11-19T00:26:57;30.30;;;14.30;;
63902;SDS011;50072;50.678;13.938;2023-11-19T00:29:32;32.28;;;14.18;;
63902;SDS011;50072;50.678;13.938;2023-11-19T00:31:58;33.42;;;15.60;;
63902;SDS011;50072;50.678;13.938;2023-11-19T00:34:32;34.50;;;15.48;;
63902;SDS011;50072;50.678;13.938;2023-11-19T00:39:34;39.10;;;17.33;;
63902;SDS011;50072;50.678;13.938;2023-11-19T00:42:02;35.38;;;16.63;;
63902;SDS011;50072;50.678;13.938;2023-11-19T00:44:28;38.72;;;16.42;;
63902;SDS011;50072;50.678;13.938;2023-11-19T00:47:02;35.40;;;16.55;;
63902;SDS011;50072;50.678;13.938;2023-11-19T00:52:02;39.28;;;17.50;;
63902;SDS011;50072;50.678;13.938;2023-11-19T00:54:32;39.20;;;18.17;;
63902;SDS011;50072;50.678;13.938;2023-11-19T00:56:58;38.15;;;17.58;;
63902;SDS011;50072;50.678;13.938;2023-11-19T00:59:24;42.63;;;18.48;;
63902;SDS011;50072;50.678;13.938;2023-11-19T01:01:56;41.13;;;18.70;;
63902;SDS011;50072;50.678;13.938;2023-11-19T01:04:23;41.42;;;19.02;;
63902;SDS011;50072;50.678;13.938;2023-11-19T01:06:55;44.97;;;20.73;;
63902;SDS011;50072;50.678;13.938;2023-11-19T01:12:02;50.65;;;22.58;;
63902;SDS011;50072;50.678;13.938;2023-11-19T01:14:28;51.70;;;22.85;;
63902;SDS011;50072;50.678;13.938;2023-11-19T01:16:54;47.72;;;20.88;;
63902;SDS011;50072;50.678;13.938;2023-11-19T01:19:32;54.75;;;22.77;;
63902;SDS011;50072;50.678;13.938;2023-11-19T01:22:02;49.10;;;22.02;;
63902;SDS011;50072;50.678;13.938;2023-11-19T01:24:33;48.22;;;21.42;;
63902;SDS011;50072;50.678;13.938;2023-11-19T01:27:02;53.13;;;21.73;;
63902;SDS011;50072;50.678;13.938;2023-11-19T01:29:30;53.53;;;22.17;;
63902;SDS011;50072;50.678;13.938;2023-11-19T01:32:02;54.05;;;21.75;;
63902;SDS011;50072;50.678;13.938;2023-11-19T01:34:28;55.15;;;22.73;;
63902;SDS011;50072;50.678;13.938;2023-11-19T01:36:56;55.75;;;22.65;;
63902;SDS011;50072;50.678;13.938;2023-11-19T01:42:00;60.75;;;24.52;;
63902;SDS011;50072;50.678;13.938;2023-11-19T01:44:27;61.55;;;25.45;;
63902;SDS011;50072;50.678;13.938;2023-11-19T01:46:53;53.00;;;22.23;;
63902;SDS011;50072;50.678;13.938;2023-11-19T01:49:32;61.08;;;23.67;;
63902;SDS011;50072;50.678;13.938;2023-11-19T01:51:58;54.72;;;23.23;;
63902;SDS011;50072;50.678;13.938;2023-11-19T01:54:24;59.60;;;23.05;;
63902;SDS011;50072;50.678;13.938;2023-11-19T01:56:52;68.22;;;26.35;;
63902;SDS011;50072;50.678;13.938;2023-11-19T01:59:24;61.55;;;25.25;;
63902;SDS011;50072;50.678;13.938;2023-11-19T02:01:55;51.65;;;22.42;;
63902;SDS011;50072;50.678;13.938;2023-11-19T02:04:24;53.35;;;20.75;;
63902;SDS011;50072;50.678;13.938;2023-11-19T02:07:02;45.83;;;19.67;;
63902;SDS011;50072;50.678;13.938;2023-11-19T02:09:28;40.50;;;16.90;;
63902;SDS011;50072;50.678;13.938;2023-11-19T02:12:03;33.47;;;16.65;;
63902;SDS011;50072;50.678;13.938;2023-11-19T02:14:32;37.72;;;16.60;;
63902;SDS011;50072;50.678;13.938;2023-11-19T02:19:33;35.90;;;16.52;;
63902;SDS011;50072;50.678;13.938;2023-11-19T02:22:02;37.33;;;16.95;;
63902;SDS011;50072;50.678;13.938;2023-11-19T02:24:34;45.28;;;18.92;;
63902;SDS011;50072;50.678;13.938;2023-11-19T02:33:02;42.90;;;18.15;;
63902;SDS011;50072;50.678;13.938;2023-11-19T02:35:32;32.78;;;15.30;;
63902;SDS011;50072;50.678;13.938;2023-11-19T02:38:00;35.20;;;16.35;;
63902;SDS011;50072;50.678;13.938;2023-11-19T02:40:37;38.58;;;15.43;;
63902;SDS011;50072;50.678;13.938;2023-11-19T02:45:48;41.25;;;16.35;;
63902;SDS011;50072;50.678;13.938;2023-11-19T02:48:24;33.92;;;15.32;;
63902;SDS011;50072;50.678;13.938;2023-11-19T02:50:51;25.77;;;11.82;;
63902;SDS011;50072;50.678;13.938;2023-11-19T02:53:18;28.98;;;13.32;;
63902;SDS011;50072;50.678;13.938;2023-11-19T02:55:54;28.10;;;12.77;;
63902;SDS011;50072;50.678;13.938;2023-11-19T02:58:33;26.35;;;12.77;;
63902;SDS011;50072;50.678;13.938;2023-11-19T03:01:02;29.08;;;12.15;;
63902;SDS011;50072;50.678;13.938;2023-11-19T03:03:39;31.38;;;13.65;;
63902;SDS011;50072;50.678;13.938;2023-11-19T03:06:07;29.25;;;12.63;;
63902;SDS011;50072;50.678;13.938;2023-11-19T03:08:51;29.75;;;12.13;;
63902;SDS011;50072;50.678;13.938;2023-11-19T03:11:32;23.98;;;11.88;;
63902;SDS011;50072;50.678;13.938;2023-11-19T03:14:02;27.50;;;12.05;;
63902;SDS011;50072;50.678;13.938;2023-11-19T03:16:32;26.02;;;11.52;;
63902;SDS011;50072;50.678;13.938;2023-11-19T03:18:58;27.60;;;12.48;;
63902;SDS011;50072;50.678;13.938;2023-11-19T03:21:32;24.35;;;11.15;;
63902;SDS011;50072;50.678;13.938;2023-11-19T03:23:58;27.15;;;13.25;;
63902;SDS011;50072;50.678;13.938;2023-11-19T03:26:26;25.42;;;11.18;;
63902;SDS011;50072;50.678;13.938;2023-11-19T03:31:34;22.67;;;10.65;;
63902;SDS011;50072;50.678;13.938;2023-11-19T03:34:02;20.08;;;9.45;;
63902;SDS011;50072;50.678;13.938;2023-11-19T03:36:38;21.17;;;9.57;;
63902;SDS011;50072;50.678;13.938;2023-11-19T03:41:52;21.73;;;9.38;;
63902;SDS011;50072;50.678;13.938;2023-11-19T03:44:18;20.50;;;9.40;;
63902;SDS011;50072;50.678;13.938;2023-11-19T03:49:19;21.73;;;9.43;;
63902;SDS011;50072;50.678;13.938;2023-11-19T03:51:48;18.65;;;9.35;;
63902;SDS011;50072;50.678;13.938;2023-11-19T03:54:16;20.27;;;8.82;;
63902;SDS011;50072;50.678;13.938;2023-11-19T03:56:43;21.40;;;10.25;;
63902;SDS011;50072;50.678;13.938;2023-11-19T03:59:09;20.27;;;10.20;;
63902;SDS011;50072;50.678;13.938;2023-11-19T04:01:52;23.08;;;10.68;;
63902;SDS011;50072;50.678;13.938;2023-11-19T04:04:25;26.05;;;11.02;;
63902;SDS011;50072;50.678;13.938;2023-11-19T04:09:24;30.33;;;12.70;;
63902;SDS011;50072;50.678;13.938;2023-11-19T04:11:51;27.27;;;12.38;;
63902;SDS011;50072;50.678;13.938;2023-11-19T04:14:24;27.15;;;11.57;;
63902;SDS011;50072;50.678;13.938;2023-11-19T04:16:56;24.33;;;10.43;;
63902;SDS011;50072;50.678;13.938;2023-11-19T04:19:24;23.95;;;10.85;;
63902;SDS011;50072;50.678;13.938;2023-11-19T04:21:57;22.98;;;9.82;;
63902;SDS011;50072;50.678;13.938;2023-11-19T04:24:24;28.20;;;12.00;;
63902;SDS011;50072;50.678;13.938;2023-11-19T04:26:51;24.17;;;11.43;;
63902;SDS011;50072;50.678;13.938;2023-11-19T04:29:32;26.02;;;12.55;;
63902;SDS011;50072;50.678;13.938;2023-11-19T04:31:58;31.15;;;13.40;;
63902;SDS011;50072;50.678;13.938;2023-11-19T04:34:25;30.83;;;13.25;;
63902;SDS011;50072;50.678;13.938;2023-11-19T04:36:52;31.38;;;13.75;;
63902;SDS011;50072;50.678;13.938;2023-11-19T04:39:25;31.55;;;13.70;;
63902;SDS011;50072;50.678;13.938;2023-11-19T04:41:54;29.40;;;13.60;;
63902;SDS011;50072;50.678;13.938;2023-11-19T04:44:32;32.63;;;13.57;;
63902;SDS011;50072;50.678;13.938;2023-11-19T04:47:03;28.90;;;13.07;;
63902;SDS011;50072;50.678;13.938;2023-11-19T04:49:32;27.88;;;12.27;;
63902;SDS011;50072;50.678;13.938;2023-11-19T04:52:04;31.15;;;13.02;;
63902;SDS011;50072;50.678;13.938;2023-11-19T04:54:32;29.98;;;13.07;;
63902;SDS011;50072;50.678;13.938;2023-11-19T04:56:57;31.10;;;12.52;;
63902;SDS011;50072;50.678;13.938;2023-11-19T04:59:26;31.98;;;13.45;;
63902;SDS011;50072;50.678;13.938;2023-11-19T05:01:53;30.38;;;13.48;;
63902;SDS011;50072;50.678;13.938;2023-11-19T05:04:25;28.23;;;12.73;;
63902;SDS011;50072;50.678;13.938;2023-11-19T05:07:02;28.42;;;12.63;;
63902;SDS011;50072;50.678;13.938;2023-11-19T05:09:30;29.80;;;12.98;;
63902;SDS011;50072;50.678;13.938;2023-11-19T05:11:56;26.73;;;12.25;;
63902;SDS011;50072;50.678;13.938;2023-11-19T05:14:32;27.85;;;12.80;;
63902;SDS011;50072;50.678;13.938;2023-11-19T05:17:04;28.63;;;12.60;;
63902;SDS011;50072;50.678;13.938;2023-11-19T05:19:32;27.42;;;12.45;;
63902;SDS011;50072;50.678;13.938;2023-11-19T05:24:33;30.08;;;13.80;;
63902;SDS011;50072;50.678;13.938;2023-11-19T05:27:00;29.92;;;13.30;;
63902;SDS011;50072;50.678;13.938;2023-11-19T05:29:32;28.70;;;13.32;;
63902;SDS011;50072;50.678;13.938;2023-11-19T05:34:32;25.40;;;11.50;;
63902;SDS011;50072;50.678;13.938;2023-11-19T05:39:32;23.98;;;11.10;;
63902;SDS011;50072;50.678;13.938;2023-11-19T05:42:02;27.65;;;11.68;;
63902;SDS011;50072;50.678;13.938;2023-11-19T05:44:28;26.60;;;11.18;;
63902;SDS011;50072;50.678;13.938;2023-11-19T05:47:02;22.67;;;11.15;;
63902;SDS011;50072;50.678;13.938;2023-11-19T05:49:29;23.17;;;11.25;;
63902;SDS011;50072;50.678;13.938;2023-11-19T05:52:02;26.02;;;11.88;;
63902;SDS011;50072;50.678;13.938;2023-11-19T05:54:32;23.15;;;11.77;;
63902;SDS011;50072;50.678;13.938;2023-11-19T06:04:58;23.50;;;11.55;;
63902;SDS011;50072;50.678;13.938;2023-11-19T06:07:30;23.30;;;11.57;;
63902;SDS011;50072;50.678;13.938;2023-11-19T06:10:02;25.75;;;11.75;;
63902;SDS011;50072;50.678;13.938;2023-11-19T06:12:33;26.20;;;12.15;;
63902;SDS011;50072;50.678;13.938;2023-11-19T06:15:05;28.60;;;12.98;;
63902;SDS011;50072;50.678;13.938;2023-11-19T06:17:32;25.92;;;11.90;;
63902;SDS011;50072;50.678;13.938;2023-11-19T06:22:32;26.85;;;13.05;;
63902;SDS011;50072;50.678;13.938;2023-11-19T06:25:02;28.33;;;12.55;;
63902;SDS011;50072;50.678;13.938;2023-11-19T06:27:32;28.73;;;12.80;;
63902;SDS011;50072;50.678;13.938;2023-11-19T06:29:59;27.05;;;12.48;;
63902;SDS011;50072;50.678;13.938;2023-11-19T06:32:27;25.80;;;12.75;;
63902;SDS011;50072;50.678;13.938;2023-11-19T06:34:56;25.88;;;13.00;;
63902;SDS011;50072;50.678;13.938;2023-11-19T06:37:29;24.25;;;11.93;;
63902;SDS011;50072;50.678;13.938;2023-11-19T06:39:55;25.40;;;12.10;;
63902;SDS011;50072;50.678;13.938;2023-11-19T06:42:24;25.52;;;11.48;;
63902;SDS011;50072;50.678;13.938;2023-11-19T06:44:54;23.88;;;11.00;;
63902;SDS011;50072;50.678;13.938;2023-11-19T06:47:32;27.55;;;11.80;;
63902;SDS011;50072;50.678;13.938;2023-11-19T06:50:04;21.25;;;10.43;;
63902;SDS011;50072;50.678;13.938;2023-11-19T06:52:32;27.45;;;11.75;;
63902;SDS011;50072;50.678;13.938;2023-11-19T06:55:01;28.77;;;12.95;;
63902;SDS011;50072;50.678;13.938;2023-11-19T06:59:58;24.92;;;12.07;;
63902;SDS011;50072;50.678;13.938;2023-11-19T07:02:24;22.00;;;10.60;;
63902;SDS011;50072;50.678;13.938;2023-11-19T07:04:50;21.88;;;9.88;;
63902;SDS011;50072;50.678;13.938;2023-11-19T07:07:16;23.40;;;11.82;;
63902;SDS011;50072;50.678;13.938;2023-11-19T07:09:42;22.10;;;10.05;;
63902;SDS011;50072;50.678;13.938;2023-11-19T07:12:09;22.33;;;10.38;;
63902;SDS011;50072;50.678;13.938;2023-11-19T07:14:36;19.10;;;9.35;;
63902;SDS011;50072;50.678;13.938;2023-11-19T07:17:02;19.95;;;9.40;;
63902;SDS011;50072;50.678;13.938;2023-11-19T07:19:31;18.70;;;8.70;;
63902;SDS011;50072;50.678;13.938;2023-11-19T07:21:57;20.23;;;9.15;;
63902;SDS011;50072;50.678;13.938;2023-11-19T07:24:23;18.55;;;8.27;;
63902;SDS011;50072;50.678;13.938;2023-11-19T07:26:51;17.92;;;8.43;;
63902;SDS011;50072;50.678;13.938;2023-11-19T07:29:18;21.50;;;10.32;;
63902;SDS011;50072;50.678;13.938;2023-11-19T07:31:44;19.27;;;9.50;;
63902;SDS011;50072;50.678;13.938;2023-11-19T07:34:11;23.73;;;9.32;;
63902;SDS011;50072;50.678;13.938;2023-11-19T07:36:37;19.77;;;10.13;;
63902;SDS011;50072;50.678;13.938;2023-11-19T07:39:04;19.30;;;9.75;;
63902;SDS011;50072;50.678;13.938;2023-11-19T07:41:30;21.27;;;10.50;;
63902;SDS011;50072;50.678;13.938;2023-11-19T07:43:57;24.25;;;11.50;;
63902;SDS011;50072;50.678;13.938;2023-11-19T07:46:23;27.98;;;12.60;;
63902;SDS011;50072;50.678;13.938;2023-11-19T07:48:49;21.05;;;10.82;;
63902;SDS011;50072;50.678;13.938;2023-11-19T07:51:18;19.83;;;10.90;;
63902;SDS011;50072;50.678;13.938;2023-11-19T07:53:44;19.98;;;9.85;;
63902;SDS011;50072;50.678;13.938;2023-11-19T07:56:12;21.05;;;10.27;;
63902;SDS011;50072;50.678;13.938;2023-11-19T07:58:38;24.02;;;11.63;;
63902;SDS011;50072;50.678;13.938;2023-11-19T08:01:06;23.02;;;10.85;;
63902;SDS011;50072;50.678;13.938;2023-11-19T08:03:33;22.17;;;9.35;;
63902;SDS011;50072;50.678;13.938;2023-11-19T08:06:03;23.63;;;10.55;;
63902;SDS011;50072;50.678;13.938;2023-11-19T08:08:29;21.52;;;9.75;;
63902;SDS011;50072;50.678;13.938;2023-11-19T08:10:58;20.10;;;9.70;;
63902;SDS011;50072;50.678;13.938;2023-11-19T08:13:24;22.08;;;10.43;;
63902;SDS011;50072;50.678;13.938;2023-11-19T08:15:51;32.47;;;13.30;;
63902;SDS011;50072;50.678;13.938;2023-11-19T08:18:19;36.67;;;15.10;;
63902;SDS011;50072;50.678;13.938;2023-11-19T08:20:45;31.65;;;13.38;;
63902;SDS011;50072;50.678;13.938;2023-11-19T08:23:16;25.63;;;13.07;;
63902;SDS011;50072;50.678;13.938;2023-11-19T08:25:42;25.13;;;11.40;;
63902;SDS011;50072;50.678;13.938;2023-11-19T08:28:10;24.45;;;10.50;;
63902;SDS011;50072;50.678;13.938;2023-11-19T08:30:37;24.88;;;10.90;;
63902;SDS011;50072;50.678;13.938;2023-11-19T08:33:03;28.63;;;13.85;;
63902;SDS011;50072;50.678;13.938;2023-11-19T08:35:31;29.67;;;15.27;;
63902;SDS011;50072;50.678;13.938;2023-11-19T08:37:57;34.90;;;17.65;;
63902;SDS011;50072;50.678;13.938;2023-11-19T08:40:24;30.30;;;13.98;;
63902;SDS011;50072;50.678;13.938;2023-11-19T08:42:52;22.38;;;10.32;;
63902;SDS011;50072;50.678;13.938;2023-11-19T08:45:18;21.27;;;9.82;;
63902;SDS011;50072;50.678;13.938;2023-11-19T08:47:44;22.45;;;10.57;;
63902;SDS011;50072;50.678;13.938;2023-11-19T08:50:11;24.38;;;10.30;;
63902;SDS011;50072;50.678;13.938;2023-11-19T08:52:37;21.38;;;10.05;;
63902;SDS011;50072;50.678;13.938;2023-11-19T08:55:04;20.73;;;9.60;;
63902;SDS011;50072;50.678;13.938;2023-11-19T08:57:35;22.42;;;10.38;;
63902;SDS011;50072;50.678;13.938;2023-11-19T09:00:02;20.13;;;9.30;;
63902;SDS011;50072;50.678;13.938;2023-11-19T09:02:34;18.52;;;9.35;;
63902;SDS011;50072;50.678;13.938;2023-11-19T09:05:03;15.60;;;8.27;;
63902;SDS011;50072;50.678;13.938;2023-11-19T09:07:31;16.95;;;7.80;;
63902;SDS011;50072;50.678;13.938;2023-11-19T09:09:57;16.33;;;7.90;;
63902;SDS011;50072;50.678;13.938;2023-11-19T09:12:23;20.27;;;8.15;;
63902;SDS011;50072;50.678;13.938;2023-11-19T09:14:49;18.88;;;7.95;;
63902;SDS011;50072;50.678;13.938;2023-11-19T09:17:16;17.50;;;8.25;;
63902;SDS011;50072;50.678;13.938;2023-11-19T09:19:43;19.77;;;8.82;;
63902;SDS011;50072;50.678;13.938;2023-11-19T09:22:13;13.50;;;7.25;;
63902;SDS011;50072;50.678;13.938;2023-11-19T09:24:39;18.77;;;8.52;;
63902;SDS011;50072;50.678;13.938;2023-11-19T09:27:06;15.27;;;7.30;;
63902;SDS011;50072;50.678;13.938;2023-11-19T09:29:32;14.80;;;7.78;;
63902;SDS011;50072;50.678;13.938;2023-11-19T09:31:59;17.30;;;8.50;;
63902;SDS011;50072;50.678;13.938;2023-11-19T09:34:26;16.42;;;7.90;;
63902;SDS011;50072;50.678;13.938;2023-11-19T09:36:54;14.27;;;7.28;;
63902;SDS011;50072;50.678;13.938;2023-11-19T09:39:22;15.50;;;7.40;;
63902;SDS011;50072;50.678;13.938;2023-11-19T09:41:48;15.68;;;7.90;;
63902;SDS011;50072;50.678;13.938;2023-11-19T09:44:15;17.92;;;8.38;;
63902;SDS011;50072;50.678;13.938;2023-11-19T09:46:44;15.85;;;8.23;;
63902;SDS011;50072;50.678;13.938;2023-11-19T09:49:12;24.60;;;12.00;;
63902;SDS011;50072;50.678;13.938;2023-11-19T09:51:40;26.73;;;12.07;;
63902;SDS011;50072;50.678;13.938;2023-11-19T09:54:07;23.17;;;11.13;;
63902;SDS011;50072;50.678;13.938;2023-11-19T09:56:33;16.15;;;7.80;;
63902;SDS011;50072;50.678;13.938;2023-11-19T09:59:02;14.45;;;7.43;;
63902;SDS011;50072;50.678;13.938;2023-11-19T10:01:28;25.80;;;12.02;;
63902;SDS011;50072;50.678;13.938;2023-11-19T10:03:56;32.25;;;15.50;;
63902;SDS011;50072;50.678;13.938;2023-11-19T10:06:22;17.13;;;8.93;;
63902;SDS011;50072;50.678;13.938;2023-11-19T10:08:51;17.27;;;8.80;;
63902;SDS011;50072;50.678;13.938;2023-11-19T10:11:18;19.65;;;10.45;;
63902;SDS011;50072;50.678;13.938;2023-11-19T10:13:44;19.13;;;9.43;;
63902;SDS011;50072;50.678;13.938;2023-11-19T10:16:13;19.67;;;9.95;;
63902;SDS011;50072;50.678;13.938;2023-11-19T10:18:47;16.60;;;9.07;;
63902;SDS011;50072;50.678;13.938;2023-11-19T10:21:19;17.25;;;9.15;;
63902;SDS011;50072;50.678;13.938;2023-11-19T10:23:50;13.57;;;7.65;;
63902;SDS011;50072;50.678;13.938;2023-11-19T10:26:26;17.80;;;9.88;;
63902;SDS011;50072;50.678;13.938;2023-11-19T10:28:53;22.17;;;10.30;;
63902;SDS011;50072;50.678;13.938;2023-11-19T10:31:21;19.70;;;8.95;;
63902;SDS011;50072;50.678;13.938;2023-11-19T10:33:51;14.82;;;7.30;;
63902;SDS011;50072;50.678;13.938;2023-11-19T10:36:19;17.15;;;8.85;;
63902;SDS011;50072;50.678;13.938;2023-11-19T10:38:55;17.50;;;8.45;;
63902;SDS011;50072;50.678;13.938;2023-11-19T10:41:29;13.75;;;7.82;;
63902;SDS011;50072;50.678;13.938;2023-11-19T10:43:57;16.13;;;7.95;;
63902;SDS011;50072;50.678;13.938;2023-11-19T10:46:36;13.95;;;7.55;;
63902;SDS011;50072;50.678;13.938;2023-11-19T10:49:04;17.13;;;8.63;;
63902;SDS011;50072;50.678;13.938;2023-11-19T10:51:32;12.88;;;7.00;;
63902;SDS011;50072;50.678;13.938;2023-11-19T10:54:01;12.05;;;7.20;;
63902;SDS011;50072;50.678;13.938;2023-11-19T10:56:31;11.02;;;6.43;;
63902;SDS011;50072;50.678;13.938;2023-11-19T10:59:01;11.40;;;6.70;;
63902;SDS011;50072;50.678;13.938;2023-11-19T11:02:06;14.10;;;6.97;;
63902;SDS011;50072;50.678;13.938;2023-11-19T11:04:25;29.45;;;13.52;;
63902;SDS011;50072;50.678;13.938;2023-11-19T11:06:58;24.02;;;11.57;;
63902;SDS011;50072;50.678;13.938;2023-11-19T11:09:27;23.48;;;10.13;;
63902;SDS011;50072;50.678;13.938;2023-11-19T11:11:55;25.85;;;12.25;;
63902;SDS011;50072;50.678;13.938;2023-11-19T11:14:22;41.70;;;17.33;;
63902;SDS011;50072;50.678;13.938;2023-11-19T11:16:51;43.80;;;16.05;;
63902;SDS011;50072;50.678;13.938;2023-11-19T11:19:18;17.60;;;8.45;;
63902;SDS011;50072;50.678;13.938;2023-11-19T11:21:52;19.80;;;9.23;;
63902;SDS011;50072;50.678;13.938;2023-11-19T11:24:30;22.88;;;11.07;;
63902;SDS011;50072;50.678;13.938;2023-11-19T11:33:09;30.52;;;13.98;;
63902;SDS011;50072;50.678;13.938;2023-11-19T11:38:31;20.80;;;10.57;;
63902;SDS011;50072;50.678;13.938;2023-11-19T11:41:25;20.33;;;11.27;;
63902;SDS011;50072;50.678;13.938;2023-11-19T11:43:51;26.83;;;12.55;;
63902;SDS011;50072;50.678;13.938;2023-11-19T11:49:02;28.17;;;14.45;;
63902;SDS011;50072;50.678;13.938;2023-11-19T11:54:10;24.77;;;13.07;;
63902;SDS011;50072;50.678;13.938;2023-11-19T11:57:03;26.90;;;14.02;;
63902;SDS011;50072;50.678;13.938;2023-11-19T11:59:45;28.25;;;14.18;;
63902;SDS011;50072;50.678;13.938;2023-11-19T12:02:17;18.65;;;10.50;;
63902;SDS011;50072;50.678;13.938;2023-11-19T12:04:48;24.02;;;11.55;;
63902;SDS011;50072;50.678;13.938;2023-11-19T12:07:20;15.73;;;8.68;;
63902;SDS011;50072;50.678;13.938;2023-11-19T12:09:52;14.43;;;8.20;;
63902;SDS011;50072;50.678;13.938;2023-11-19T12:12:26;14.50;;;8.73;;
63902;SDS011;50072;50.678;13.938;2023-11-19T12:15:05;15.50;;;8.55;;
63902;SDS011;50072;50.678;13.938;2023-11-19T12:17:52;14.43;;;8.65;;
63902;SDS011;50072;50.678;13.938;2023-11-19T12:20:21;17.45;;;9.30;;
63902;SDS011;50072;50.678;13.938;2023-11-19T12:22:48;18.50;;;9.40;;
63902;SDS011;50072;50.678;13.938;2023-11-19T12:25:15;22.95;;;10.43;;
63902;SDS011;50072;50.678;13.938;2023-11-19T12:27:48;21.48;;;11.50;;
63902;SDS011;50072;50.678;13.938;2023-11-19T12:32:49;20.45;;;11.10;;
63902;SDS011;50072;50.678;13.938;2023-11-19T12:35:20;19.40;;;9.68;;
63902;SDS011;50072;50.678;13.938;2023-11-19T12:37:47;18.92;;;9.05;;
63902;SDS011;50072;50.678;13.938;2023-11-19T12:40:15;17.02;;;8.93;;
63902;SDS011;50072;50.678;13.938;2023-11-19T12:42:46;21.40;;;12.93;;
63902;SDS011;50072;50.678;13.938;2023-11-19T12:45:18;23.73;;;12.70;;
63902;SDS011;50072;50.678;13.938;2023-11-19T12:47:46;15.35;;;9.05;;
63902;SDS011;50072;50.678;13.938;2023-11-19T12:50:14;18.58;;;9.68;;
63902;SDS011;50072;50.678;13.938;2023-11-19T12:52:43;18.20;;;9.90;;
63902;SDS011;50072;50.678;13.938;2023-11-19T12:55:28;17.90;;;9.88;;
63902;SDS011;50072;50.678;13.938;2023-11-19T12:57:54;19.55;;;10.18;;
63902;SDS011;50072;50.678;13.938;2023-11-19T13:00:24;19.17;;;10.32;;
63902;SDS011;50072;50.678;13.938;2023-11-19T13:02:55;20.27;;;9.77;;
63902;SDS011;50072;50.678;13.938;2023-11-19T13:05:23;15.35;;;9.10;;
63902;SDS011;50072;50.678;13.938;2023-11-19T13:10:32;20.35;;;9.77;;
63902;SDS011;50072;50.678;13.938;2023-11-19T13:13:09;18.05;;;9.90;;
63902;SDS011;50072;50.678;13.938;2023-11-19T13:15:50;21.83;;;11.40;;
63902;SDS011;50072;50.678;13.938;2023-11-19T13:18:16;19.10;;;10.55;;
63902;SDS011;50072;50.678;13.938;2023-11-19T13:20:51;26.30;;;12.93;;
63902;SDS011;50072;50.678;13.938;2023-11-19T13:23:18;30.60;;;14.55;;
63902;SDS011;50072;50.678;13.938;2023-11-19T13:25:45;30.65;;;15.30;;
63902;SDS011;50072;50.678;13.938;2023-11-19T13:28:11;40.22;;;19.30;;
63902;SDS011;50072;50.678;13.938;2023-11-19T13:30:40;36.38;;;17.95;;
63902;SDS011;50072;50.678;13.938;2023-11-19T13:33:06;30.13;;;15.63;;
63902;SDS011;50072;50.678;13.938;2023-11-19T13:35:32;31.30;;;14.93;;
63902;SDS011;50072;50.678;13.938;2023-11-19T13:37:58;34.90;;;18.02;;
63902;SDS011;50072;50.678;13.938;2023-11-19T13:40:24;28.75;;;16.25;;
63902;SDS011;50072;50.678;13.938;2023-11-19T13:45:27;41.53;;;20.17;;
63902;SDS011;50072;50.678;13.938;2023-11-19T13:47:54;49.17;;;22.27;;
63902;SDS011;50072;50.678;13.938;2023-11-19T13:50:24;34.63;;;16.70;;
63902;SDS011;50072;50.678;13.938;2023-11-19T13:52:56;32.38;;;16.58;;
63902;SDS011;50072;50.678;13.938;2023-11-19T13:55:25;31.88;;;16.15;;
63902;SDS011;50072;50.678;13.938;2023-11-19T13:58:02;36.47;;;19.13;;
63902;SDS011;50072;50.678;13.938;2023-11-19T14:00:30;45.35;;;20.73;;
63902;SDS011;50072;50.678;13.938;2023-11-19T14:03:01;40.30;;;21.23;;
63902;SDS011;50072;50.678;13.938;2023-11-19T14:05:28;45.78;;;22.60;;
63902;SDS011;50072;50.678;13.938;2023-11-19T14:07:54;50.33;;;22.63;;
63902;SDS011;50072;50.678;13.938;2023-11-19T14:10:25;44.55;;;23.88;;
63902;SDS011;50072;50.678;13.938;2023-11-19T14:12:52;33.25;;;18.63;;
63902;SDS011;50072;50.678;13.938;2023-11-19T14:15:19;38.20;;;16.42;;
63902;SDS011;50072;50.678;13.938;2023-11-19T14:17:46;25.05;;;13.13;;
63902;SDS011;50072;50.678;13.938;2023-11-19T14:20:15;22.67;;;12.20;;
63902;SDS011;50072;50.678;13.938;2023-11-19T14:25:15;22.40;;;11.88;;
63902;SDS011;50072;50.678;13.938;2023-11-19T14:30:12;29.25;;;14.50;;
63902;SDS011;50072;50.678;13.938;2023-11-19T14:32:39;24.85;;;12.68;;
63902;SDS011;50072;50.678;13.938;2023-11-19T14:35:08;31.02;;;15.57;;
63902;SDS011;50072;50.678;13.938;2023-11-19T14:37:38;29.92;;;15.25;;
63902;SDS011;50072;50.678;13.938;2023-11-19T14:40:04;28.35;;;15.45;;
63902;SDS011;50072;50.678;13.938;2023-11-19T14:42:31;25.75;;;14.68;;
63902;SDS011;50072;50.678;13.938;2023-11-19T14:44:58;23.15;;;12.73;;
63902;SDS011;50072;50.678;13.938;2023-11-19T14:47:25;46.90;;;24.83;;
63902;SDS011;50072;50.678;13.938;2023-11-19T14:49:51;33.70;;;16.67;;
63902;SDS011;50072;50.678;13.938;2023-11-19T14:52:17;41.65;;;22.10;;
63902;SDS011;50072;50.678;13.938;2023-11-19T14:54:43;35.58;;;18.65;;
63902;SDS011;50072;50.678;13.938;2023-11-19T14:57:10;37.67;;;18.83;;
63902;SDS011;50072;50.678;13.938;2023-11-19T14:59:36;42.47;;;18.98;;
63902;SDS011;50072;50.678;13.938;2023-11-19T15:02:03;38.47;;;20.45;;
63902;SDS011;50072;50.678;13.938;2023-11-19T15:04:30;40.30;;;19.90;;
63902;SDS011;50072;50.678;13.938;2023-11-19T15:06:56;38.95;;;20.35;;
63902;SDS011;50072;50.678;13.938;2023-11-19T15:09:23;42.60;;;22.20;;
63902;SDS011;50072;50.678;13.938;2023-11-19T15:11:49;41.38;;;21.17;;
63902;SDS011;50072;50.678;13.938;2023-11-19T15:14:16;60.75;;;30.15;;
63902;SDS011;50072;50.678;13.938;2023-11-19T15:16:44;89.43;;;41.40;;
63902;SDS011;50072;50.678;13.938;2023-11-19T15:19:12;55.38;;;27.45;;
63902;SDS011;50072;50.678;13.938;2023-11-19T15:21:39;62.38;;;28.25;;
63902;SDS011;50072;50.678;13.938;2023-11-19T15:24:06;56.95;;;26.52;;
63902;SDS011;50072;50.678;13.938;2023-11-19T15:26:35;43.55;;;21.80;;
63902;SDS011;50072;50.678;13.938;2023-11-19T15:29:02;40.63;;;20.73;;
63902;SDS011;50072;50.678;13.938;2023-11-19T15:31:29;47.92;;;23.65;;
63902;SDS011;50072;50.678;13.938;2023-11-19T15:33:55;48.25;;;22.27;;
63902;SDS011;50072;50.678;13.938;2023-11-19T15:36:22;70.53;;;30.00;;
63902;SDS011;50072;50.678;13.938;2023-11-19T15:38:48;82.95;;;31.52;;
63902;SDS011;50072;50.678;13.938;2023-11-19T15:41:14;75.97;;;35.08;;
63902;SDS011;50072;50.678;13.938;2023-11-19T15:43:40;59.13;;;28.88;;